sensor_id;sensor_type;location;lat;lon;timestamp;P1;durP1;ratioP1;P2;durP2;ratioP2
6561;SDS011;3314;50.890;4.722;2023-04-25T00:01:22;12.7;;;3.0;;
6561;SDS011;3314;50.890;4.722;2023-04-25T00:03:22;16.8;;;4.1;;
6561;SDS011;3314;50.890;4.722;2023-04-25T00:05:23;15.4;;;3.7;;
6561;SDS011;3314;50.890;4.722;2023-04-25T00:07:23;13.1;;;2.7;;
6561;SDS011;3314;50.890;4.722;2023-04-25T00:09:24;14.6;;;3.2;;
6561;SDS011;3314;50.890;4.722;2023-04-25T00:11:23;18.2;;;3.8;;
6561;SDS011;3314;50.890;4.722;2023-04-25T00:13:23;12.7;;;3.3;;
6561;SDS011;3314;50.890;4.722;2023-04-25T00:15:24;15.7;;;4.2;;
6561;SDS011;3314;50.890;4.722;2023-04-25T00:17:14;17.8;;;3.4;;
6561;SDS011;3314;50.890;4.722;2023-04-25T00:19:14;14.3;;;2.9;;
6561;SDS011;3314;50.890;4.722;2023-04-25T00:21:13;14.0;;;3.4;;
6561;SDS011;3314;50.890;4.722;2023-04-25T00:23:13;15.7;;;3.7;;
6561;SDS011;3314;50.890;4.722;2023-04-25T00:25:13;17.7;;;4.1;;
6561;SDS011;3314;50.890;4.722;2023-04-25T00:27:12;15.5;;;3.2;;
6561;SDS011;3314;50.890;4.722;2023-04-25T00:29:12;14.7;;;4.0;;
6561;SDS011;3314;50.890;4.722;2023-04-25T00:31:12;16.0;;;3.7;;
6561;SDS011;3314;50.890;4.722;2023-04-25T00:33:12;17.9;;;3.1;;
6561;SDS011;3314;50.890;4.722;2023-04-25T00:35:11;17.0;;;3.5;;
6561;SDS011;3314;50.890;4.722;2023-04-25T00:37:12;19.2;;;3.1;;
6561;SDS011;3314;50.890;4.722;2023-04-25T00:39:11;17.4;;;4.1;;
6561;SDS011;3314;50.890;4.722;2023-04-25T00:41:11;15.8;;;3.8;;
6561;SDS011;3314;50.890;4.722;2023-04-25T00:43:11;15.5;;;3.5;;
6561;SDS011;3314;50.890;4.722;2023-04-25T00:45:12;13.8;;;3.1;;
6561;SDS011;3314;50.890;4.722;2023-04-25T00:47:12;15.8;;;4.0;;
6561;SDS011;3314;50.890;4.722;2023-04-25T00:49:15;16.3;;;2.6;;
6561;SDS011;3314;50.890;4.722;2023-04-25T00:51:16;18.0;;;3.9;;
6561;SDS011;3314;50.890;4.722;2023-04-25T00:53:18;16.0;;;3.1;;
6561;SDS011;3314;50.890;4.722;2023-04-25T00:55:08;17.7;;;4.1;;
6561;SDS011;3314;50.890;4.722;2023-04-25T00:57:09;13.6;;;4.5;;
6561;SDS011;3314;50.890;4.722;2023-04-25T00:59:08;11.8;;;2.9;;
6561;SDS011;3314;50.890;4.722;2023-04-25T01:01:08;18.2;;;4.1;;
6561;SDS011;3314;50.890;4.722;2023-04-25T01:03:10;12.0;;;2.8;;
6561;SDS011;3314;50.890;4.722;2023-04-25T01:05:10;12.1;;;2.6;;
6561;SDS011;3314;50.890;4.722;2023-04-25T01:07:10;13.0;;;3.7;;
6561;SDS011;3314;50.890;4.722;2023-04-25T01:09:10;11.8;;;3.3;;
6561;SDS011;3314;50.890;4.722;2023-04-25T01:11:10;17.4;;;3.5;;
6561;SDS011;3314;50.890;4.722;2023-04-25T01:13:09;14.4;;;3.8;;
6561;SDS011;3314;50.890;4.722;2023-04-25T01:15:09;16.7;;;4.6;;
6561;SDS011;3314;50.890;4.722;2023-04-25T01:17:09;15.6;;;3.5;;
6561;SDS011;3314;50.890;4.722;2023-04-25T01:19:10;13.9;;;3.4;;
6561;SDS011;3314;50.890;4.722;2023-04-25T01:21:10;20.8;;;4.1;;
6561;SDS011;3314;50.890;4.722;2023-04-25T01:23:10;18.2;;;3.3;;
6561;SDS011;3314;50.890;4.722;2023-04-25T01:25:11;13.8;;;3.7;;
6561;SDS011;3314;50.890;4.722;2023-04-25T01:27:10;16.1;;;3.2;;
6561;SDS011;3314;50.890;4.722;2023-04-25T01:29:11;11.1;;;3.5;;
6561;SDS011;3314;50.890;4.722;2023-04-25T01:31:10;17.0;;;3.5;;
6561;SDS011;3314;50.890;4.722;2023-04-25T01:33:10;14.4;;;3.6;;
6561;SDS011;3314;50.890;4.722;2023-04-25T01:35:11;15.0;;;3.4;;
6561;SDS011;3314;50.890;4.722;2023-04-25T01:37:11;14.3;;;3.2;;
6561;SDS011;3314;50.890;4.722;2023-04-25T01:39:10;18.2;;;3.5;;
6561;SDS011;3314;50.890;4.722;2023-04-25T01:41:10;13.9;;;3.6;;
6561;SDS011;3314;50.890;4.722;2023-04-25T01:43:11;18.2;;;3.2;;
6561;SDS011;3314;50.890;4.722;2023-04-25T01:45:00;12.3;;;3.6;;
6561;SDS011;3314;50.890;4.722;2023-04-25T01:47:00;12.5;;;3.8;;
6561;SDS011;3314;50.890;4.722;2023-04-25T01:48:59;15.3;;;3.3;;
6561;SDS011;3314;50.890;4.722;2023-04-25T01:50:59;13.2;;;4.0;;
6561;SDS011;3314;50.890;4.722;2023-04-25T01:52:59;14.9;;;3.5;;
6561;SDS011;3314;50.890;4.722;2023-04-25T01:54:59;19.6;;;3.6;;
6561;SDS011;3314;50.890;4.722;2023-04-25T01:57:00;13.3;;;3.9;;
6561;SDS011;3314;50.890;4.722;2023-04-25T01:59:00;14.1;;;3.8;;
6561;SDS011;3314;50.890;4.722;2023-04-25T02:01:00;16.3;;;3.5;;
6561;SDS011;3314;50.890;4.722;2023-04-25T02:02:59;14.3;;;4.1;;
6561;SDS011;3314;50.890;4.722;2023-04-25T02:04:59;17.2;;;3.1;;
6561;SDS011;3314;50.890;4.722;2023-04-25T02:06:59;15.7;;;3.7;;
6561;SDS011;3314;50.890;4.722;2023-04-25T02:08:58;12.6;;;3.1;;
6561;SDS011;3314;50.890;4.722;2023-04-25T02:10:58;19.1;;;3.5;;
6561;SDS011;3314;50.890;4.722;2023-04-25T02:12:58;10.7;;;3.5;;
6561;SDS011;3314;50.890;4.722;2023-04-25T02:14:57;13.4;;;2.5;;
6561;SDS011;3314;50.890;4.722;2023-04-25T02:16:58;11.4;;;2.9;;
6561;SDS011;3314;50.890;4.722;2023-04-25T02:18:58;17.2;;;3.4;;
6561;SDS011;3314;50.890;4.722;2023-04-25T02:20:58;17.7;;;4.3;;
6561;SDS011;3314;50.890;4.722;2023-04-25T02:22:58;12.7;;;3.4;;
6561;SDS011;3314;50.890;4.722;2023-04-25T02:24:58;17.7;;;3.3;;
6561;SDS011;3314;50.890;4.722;2023-04-25T02:26:57;15.2;;;3.2;;
6561;SDS011;3314;50.890;4.722;2023-04-25T02:28:57;18.9;;;3.9;;
6561;SDS011;3314;50.890;4.722;2023-04-25T02:30:57;16.9;;;3.2;;
6561;SDS011;3314;50.890;4.722;2023-04-25T02:32:56;15.3;;;4.1;;
6561;SDS011;3314;50.890;4.722;2023-04-25T02:34:59;17.2;;;3.0;;
6561;SDS011;3314;50.890;4.722;2023-04-25T02:36:58;23.0;;;4.5;;
6561;SDS011;3314;50.890;4.722;2023-04-25T02:38:58;13.7;;;2.6;;
6561;SDS011;3314;50.890;4.722;2023-04-25T02:40:58;13.8;;;3.2;;
6561;SDS011;3314;50.890;4.722;2023-04-25T02:42:57;15.0;;;3.3;;
6561;SDS011;3314;50.890;4.722;2023-04-25T02:44:57;21.4;;;4.3;;
6561;SDS011;3314;50.890;4.722;2023-04-25T02:46:57;18.1;;;3.0;;
6561;SDS011;3314;50.890;4.722;2023-04-25T02:48:56;11.3;;;3.0;;
6561;SDS011;3314;50.890;4.722;2023-04-25T02:50:56;17.6;;;3.9;;
6561;SDS011;3314;50.890;4.722;2023-04-25T02:52:56;13.1;;;3.1;;
6561;SDS011;3314;50.890;4.722;2023-04-25T02:54:55;12.2;;;2.8;;
6561;SDS011;3314;50.890;4.722;2023-04-25T02:56:55;18.1;;;3.1;;
6561;SDS011;3314;50.890;4.722;2023-04-25T02:58:55;18.1;;;2.9;;
6561;SDS011;3314;50.890;4.722;2023-04-25T03:00:55;14.1;;;3.2;;
6561;SDS011;3314;50.890;4.722;2023-04-25T03:02:54;20.2;;;3.7;;
6561;SDS011;3314;50.890;4.722;2023-04-25T03:04:54;15.7;;;3.4;;
6561;SDS011;3314;50.890;4.722;2023-04-25T03:06:54;14.1;;;3.0;;
6561;SDS011;3314;50.890;4.722;2023-04-25T03:08:53;17.8;;;3.1;;
6561;SDS011;3314;50.890;4.722;2023-04-25T03:10:56;13.4;;;3.0;;
6561;SDS011;3314;50.890;4.722;2023-04-25T03:12:55;20.1;;;3.0;;
6561;SDS011;3314;50.890;4.722;2023-04-25T03:14:55;11.2;;;3.0;;
6561;SDS011;3314;50.890;4.722;2023-04-25T03:16:55;13.3;;;2.4;;
6561;SDS011;3314;50.890;4.722;2023-04-25T03:18:54;18.7;;;3.5;;
6561;SDS011;3314;50.890;4.722;2023-04-25T03:20:54;20.9;;;3.3;;
6561;SDS011;3314;50.890;4.722;2023-04-25T03:22:54;14.4;;;3.5;;
6561;SDS011;3314;50.890;4.722;2023-04-25T03:24:53;16.6;;;3.1;;
6561;SDS011;3314;50.890;4.722;2023-04-25T03:26:53;13.9;;;3.2;;
6561;SDS011;3314;50.890;4.722;2023-04-25T03:28:53;15.1;;;2.7;;
6561;SDS011;3314;50.890;4.722;2023-04-25T03:30:52;13.0;;;3.0;;
6561;SDS011;3314;50.890;4.722;2023-04-25T03:32:52;16.0;;;3.3;;
6561;SDS011;3314;50.890;4.722;2023-04-25T03:34:52;16.5;;;3.1;;
6561;SDS011;3314;50.890;4.722;2023-04-25T03:36:51;11.5;;;2.3;;
6561;SDS011;3314;50.890;4.722;2023-04-25T03:38:51;17.5;;;3.8;;
6561;SDS011;3314;50.890;4.722;2023-04-25T03:40:51;17.4;;;4.0;;
6561;SDS011;3314;50.890;4.722;2023-04-25T03:42:41;12.7;;;2.8;;
6561;SDS011;3314;50.890;4.722;2023-04-25T03:44:40;18.7;;;2.9;;
6561;SDS011;3314;50.890;4.722;2023-04-25T03:46:40;18.6;;;3.7;;
6561;SDS011;3314;50.890;4.722;2023-04-25T03:48:40;18.5;;;3.2;;
6561;SDS011;3314;50.890;4.722;2023-04-25T03:50:40;15.1;;;3.5;;
6561;SDS011;3314;50.890;4.722;2023-04-25T03:52:39;20.7;;;3.4;;
6561;SDS011;3314;50.890;4.722;2023-04-25T03:54:39;17.8;;;2.9;;
6561;SDS011;3314;50.890;4.722;2023-04-25T03:56:39;14.0;;;3.0;;
6561;SDS011;3314;50.890;4.722;2023-04-25T03:58:39;19.2;;;2.9;;
6561;SDS011;3314;50.890;4.722;2023-04-25T04:00:38;23.1;;;3.5;;
6561;SDS011;3314;50.890;4.722;2023-04-25T04:02:39;23.9;;;4.0;;
6561;SDS011;3314;50.890;4.722;2023-04-25T04:04:39;19.4;;;3.3;;
6561;SDS011;3314;50.890;4.722;2023-04-25T04:06:38;19.2;;;3.3;;
6561;SDS011;3314;50.890;4.722;2023-04-25T04:08:38;13.2;;;2.6;;
6561;SDS011;3314;50.890;4.722;2023-04-25T04:10:38;18.2;;;3.6;;
6561;SDS011;3314;50.890;4.722;2023-04-25T04:12:37;13.7;;;2.7;;
6561;SDS011;3314;50.890;4.722;2023-04-25T04:14:37;16.2;;;3.8;;
6561;SDS011;3314;50.890;4.722;2023-04-25T04:16:37;10.0;;;2.7;;
6561;SDS011;3314;50.890;4.722;2023-04-25T04:18:37;17.3;;;3.3;;
6561;SDS011;3314;50.890;4.722;2023-04-25T04:20:36;19.0;;;2.9;;
6561;SDS011;3314;50.890;4.722;2023-04-25T04:22:36;16.4;;;3.0;;
6561;SDS011;3314;50.890;4.722;2023-04-25T04:24:36;13.1;;;3.1;;
6561;SDS011;3314;50.890;4.722;2023-04-25T04:26:37;17.2;;;2.8;;
6561;SDS011;3314;50.890;4.722;2023-04-25T04:28:38;12.0;;;2.6;;
6561;SDS011;3314;50.890;4.722;2023-04-25T04:30:39;12.1;;;2.3;;
6561;SDS011;3314;50.890;4.722;2023-04-25T04:32:39;15.5;;;2.7;;
6561;SDS011;3314;50.890;4.722;2023-04-25T04:34:39;21.2;;;3.1;;
6561;SDS011;3314;50.890;4.722;2023-04-25T04:36:40;14.0;;;2.5;;
6561;SDS011;3314;50.890;4.722;2023-04-25T04:38:40;13.7;;;2.7;;
6561;SDS011;3314;50.890;4.722;2023-04-25T04:40:40;13.8;;;2.0;;
6561;SDS011;3314;50.890;4.722;2023-04-25T04:42:41;19.0;;;3.6;;
6561;SDS011;3314;50.890;4.722;2023-04-25T04:44:32;15.8;;;2.9;;
6561;SDS011;3314;50.890;4.722;2023-04-25T04:46:32;12.4;;;2.2;;
6561;SDS011;3314;50.890;4.722;2023-04-25T04:48:34;15.3;;;3.2;;
6561;SDS011;3314;50.890;4.722;2023-04-25T04:50:34;17.2;;;2.7;;
6561;SDS011;3314;50.890;4.722;2023-04-25T04:52:34;16.8;;;3.3;;
6561;SDS011;3314;50.890;4.722;2023-04-25T04:54:35;9.5;;;3.0;;
6561;SDS011;3314;50.890;4.722;2023-04-25T04:56:35;13.4;;;2.6;;
6561;SDS011;3314;50.890;4.722;2023-04-25T04:58:36;17.6;;;3.1;;
6561;SDS011;3314;50.890;4.722;2023-04-25T05:00:36;19.0;;;2.5;;
6561;SDS011;3314;50.890;4.722;2023-04-25T05:02:36;13.9;;;2.8;;
6561;SDS011;3314;50.890;4.722;2023-04-25T05:04:36;12.1;;;2.8;;
6561;SDS011;3314;50.890;4.722;2023-04-25T05:06:36;14.5;;;2.8;;
6561;SDS011;3314;50.890;4.722;2023-04-25T05:08:36;14.6;;;2.1;;
6561;SDS011;3314;50.890;4.722;2023-04-25T05:10:38;12.3;;;2.4;;
6561;SDS011;3314;50.890;4.722;2023-04-25T05:12:25;15.4;;;3.1;;
6561;SDS011;3314;50.890;4.722;2023-04-25T05:14:25;14.7;;;3.3;;
6561;SDS011;3314;50.890;4.722;2023-04-25T05:16:25;11.0;;;2.9;;
6561;SDS011;3314;50.890;4.722;2023-04-25T05:18:24;17.4;;;4.0;;
6561;SDS011;3314;50.890;4.722;2023-04-25T05:20:24;17.4;;;3.3;;
6561;SDS011;3314;50.890;4.722;2023-04-25T05:22:24;13.9;;;2.9;;
6561;SDS011;3314;50.890;4.722;2023-04-25T05:24:23;11.3;;;2.8;;
6561;SDS011;3314;50.890;4.722;2023-04-25T05:26:24;11.4;;;2.9;;
6561;SDS011;3314;50.890;4.722;2023-04-25T05:28:24;11.8;;;2.8;;
6561;SDS011;3314;50.890;4.722;2023-04-25T05:30:23;10.4;;;2.9;;
6561;SDS011;3314;50.890;4.722;2023-04-25T05:32:23;21.7;;;4.3;;
6561;SDS011;3314;50.890;4.722;2023-04-25T05:34:23;13.5;;;3.0;;
6561;SDS011;3314;50.890;4.722;2023-04-25T05:36:23;15.1;;;2.6;;
6561;SDS011;3314;50.890;4.722;2023-04-25T05:38:22;13.4;;;2.9;;
6561;SDS011;3314;50.890;4.722;2023-04-25T05:40:22;17.3;;;4.0;;
6561;SDS011;3314;50.890;4.722;2023-04-25T05:42:21;15.3;;;3.2;;
6561;SDS011;3314;50.890;4.722;2023-04-25T05:44:21;11.3;;;3.1;;
6561;SDS011;3314;50.890;4.722;2023-04-25T05:46:21;12.2;;;3.1;;
6561;SDS011;3314;50.890;4.722;2023-04-25T05:48:20;19.9;;;3.6;;
6561;SDS011;3314;50.890;4.722;2023-04-25T05:50:20;14.0;;;2.7;;
6561;SDS011;3314;50.890;4.722;2023-04-25T05:52:20;12.1;;;3.7;;
6561;SDS011;3314;50.890;4.722;2023-04-25T05:54:19;17.7;;;3.7;;
6561;SDS011;3314;50.890;4.722;2023-04-25T05:56:19;20.2;;;3.5;;
6561;SDS011;3314;50.890;4.722;2023-04-25T05:58:19;13.6;;;2.8;;
6561;SDS011;3314;50.890;4.722;2023-04-25T06:00:19;14.7;;;3.6;;
6561;SDS011;3314;50.890;4.722;2023-04-25T06:02:19;21.2;;;3.9;;
6561;SDS011;3314;50.890;4.722;2023-04-25T06:04:19;14.5;;;2.9;;
6561;SDS011;3314;50.890;4.722;2023-04-25T06:06:19;11.6;;;2.6;;
6561;SDS011;3314;50.890;4.722;2023-04-25T06:08:19;15.0;;;3.0;;
6561;SDS011;3314;50.890;4.722;2023-04-25T06:10:19;10.9;;;2.6;;
6561;SDS011;3314;50.890;4.722;2023-04-25T06:12:18;16.5;;;4.3;;
6561;SDS011;3314;50.890;4.722;2023-04-25T06:14:18;13.2;;;3.9;;
6561;SDS011;3314;50.890;4.722;2023-04-25T06:16:18;18.7;;;4.0;;
6561;SDS011;3314;50.890;4.722;2023-04-25T06:18:18;16.4;;;3.1;;
6561;SDS011;3314;50.890;4.722;2023-04-25T06:20:17;22.1;;;4.0;;
6561;SDS011;3314;50.890;4.722;2023-04-25T06:22:17;28.1;;;4.7;;
6561;SDS011;3314;50.890;4.722;2023-04-25T06:24:17;13.5;;;3.1;;
6561;SDS011;3314;50.890;4.722;2023-04-25T06:26:16;10.5;;;3.3;;
6561;SDS011;3314;50.890;4.722;2023-04-25T06:28:16;20.0;;;3.5;;
6561;SDS011;3314;50.890;4.722;2023-04-25T06:30:18;13.9;;;3.0;;
6561;SDS011;3314;50.890;4.722;2023-04-25T06:32:19;21.1;;;3.1;;
6561;SDS011;3314;50.890;4.722;2023-04-25T06:34:18;13.4;;;3.5;;
6561;SDS011;3314;50.890;4.722;2023-04-25T06:36:18;21.4;;;3.6;;
6561;SDS011;3314;50.890;4.722;2023-04-25T06:38:17;15.1;;;3.6;;
6561;SDS011;3314;50.890;4.722;2023-04-25T06:40:18;15.7;;;3.2;;
6561;SDS011;3314;50.890;4.722;2023-04-25T06:42:18;17.1;;;4.2;;
6561;SDS011;3314;50.890;4.722;2023-04-25T06:44:17;11.8;;;3.5;;
6561;SDS011;3314;50.890;4.722;2023-04-25T06:46:17;22.2;;;3.9;;
6561;SDS011;3314;50.890;4.722;2023-04-25T06:48:17;20.1;;;4.8;;
6561;SDS011;3314;50.890;4.722;2023-04-25T06:50:16;13.9;;;3.2;;
6561;SDS011;3314;50.890;4.722;2023-04-25T06:52:18;14.6;;;3.2;;
6561;SDS011;3314;50.890;4.722;2023-04-25T06:54:18;25.5;;;4.3;;
6561;SDS011;3314;50.890;4.722;2023-04-25T06:56:18;18.2;;;3.5;;
6561;SDS011;3314;50.890;4.722;2023-04-25T06:58:18;19.4;;;4.5;;
6561;SDS011;3314;50.890;4.722;2023-04-25T07:00:10;17.8;;;3.7;;
6561;SDS011;3314;50.890;4.722;2023-04-25T07:02:09;14.2;;;3.4;;
6561;SDS011;3314;50.890;4.722;2023-04-25T07:04:09;13.6;;;3.5;;
6561;SDS011;3314;50.890;4.722;2023-04-25T07:06:09;13.8;;;3.3;;
6561;SDS011;3314;50.890;4.722;2023-04-25T07:08:09;11.5;;;3.4;;
6561;SDS011;3314;50.890;4.722;2023-04-25T07:10:08;19.4;;;4.1;;
6561;SDS011;3314;50.890;4.722;2023-04-25T07:12:08;15.3;;;3.4;;
6561;SDS011;3314;50.890;4.722;2023-04-25T07:14:08;19.5;;;3.1;;
6561;SDS011;3314;50.890;4.722;2023-04-25T07:16:08;19.5;;;3.3;;
6561;SDS011;3314;50.890;4.722;2023-04-25T07:18:07;20.2;;;3.6;;
6561;SDS011;3314;50.890;4.722;2023-04-25T07:20:09;16.4;;;3.3;;
6561;SDS011;3314;50.890;4.722;2023-04-25T07:22:09;15.3;;;3.5;;
6561;SDS011;3314;50.890;4.722;2023-04-25T07:24:09;19.0;;;3.7;;
6561;SDS011;3314;50.890;4.722;2023-04-25T07:26:08;15.2;;;3.4;;
6561;SDS011;3314;50.890;4.722;2023-04-25T07:28:08;15.9;;;4.5;;
6561;SDS011;3314;50.890;4.722;2023-04-25T07:30:08;13.2;;;3.4;;
6561;SDS011;3314;50.890;4.722;2023-04-25T07:32:08;14.2;;;2.9;;
6561;SDS011;3314;50.890;4.722;2023-04-25T07:34:08;13.1;;;3.1;;
6561;SDS011;3314;50.890;4.722;2023-04-25T07:36:08;13.2;;;3.1;;
6561;SDS011;3314;50.890;4.722;2023-04-25T07:38:08;14.7;;;3.0;;
6561;SDS011;3314;50.890;4.722;2023-04-25T07:40:08;17.0;;;3.3;;
6561;SDS011;3314;50.890;4.722;2023-04-25T07:42:08;15.0;;;3.1;;
6561;SDS011;3314;50.890;4.722;2023-04-25T07:44:08;11.7;;;3.4;;
6561;SDS011;3314;50.890;4.722;2023-04-25T07:46:07;15.7;;;3.2;;
6561;SDS011;3314;50.890;4.722;2023-04-25T07:48:07;13.2;;;2.6;;
6561;SDS011;3314;50.890;4.722;2023-04-25T07:50:07;25.1;;;4.5;;
6561;SDS011;3314;50.890;4.722;2023-04-25T07:52:07;15.3;;;3.1;;
6561;SDS011;3314;50.890;4.722;2023-04-25T07:54:07;16.8;;;3.1;;
6561;SDS011;3314;50.890;4.722;2023-04-25T07:56:07;13.1;;;2.7;;
6561;SDS011;3314;50.890;4.722;2023-04-25T07:58:06;18.3;;;3.6;;
6561;SDS011;3314;50.890;4.722;2023-04-25T08:00:10;11.4;;;3.1;;
6561;SDS011;3314;50.890;4.722;2023-04-25T08:01:58;19.3;;;3.1;;
6561;SDS011;3314;50.890;4.722;2023-04-25T08:03:58;12.4;;;2.3;;
6561;SDS011;3314;50.890;4.722;2023-04-25T08:05:58;16.3;;;3.9;;
6561;SDS011;3314;50.890;4.722;2023-04-25T08:07:57;17.9;;;3.5;;
6561;SDS011;3314;50.890;4.722;2023-04-25T08:09:57;11.0;;;2.8;;
6561;SDS011;3314;50.890;4.722;2023-04-25T08:11:57;9.7;;;2.1;;
6561;SDS011;3314;50.890;4.722;2023-04-25T08:55:06;11.7;;;1.9;;
6561;SDS011;3314;50.890;4.722;2023-04-25T08:55:20;13.7;;;2.5;;
6561;SDS011;3314;50.890;4.722;2023-04-25T08:55:57;14.8;;;2.2;;
6561;SDS011;3314;50.890;4.722;2023-04-25T08:57:56;13.5;;;2.1;;
6561;SDS011;3314;50.890;4.722;2023-04-25T08:59:57;13.5;;;2.0;;
6561;SDS011;3314;50.890;4.722;2023-04-25T09:01:57;12.1;;;2.0;;
6561;SDS011;3314;50.890;4.722;2023-04-25T09:03:57;10.3;;;2.5;;
6561;SDS011;3314;50.890;4.722;2023-04-25T09:05:56;10.1;;;2.3;;
6561;SDS011;3314;50.890;4.722;2023-04-25T09:07:47;14.1;;;2.2;;
6561;SDS011;3314;50.890;4.722;2023-04-25T09:09:46;10.8;;;2.3;;
6561;SDS011;3314;50.890;4.722;2023-04-25T09:11:46;14.1;;;2.4;;
6561;SDS011;3314;50.890;4.722;2023-04-25T09:13:46;9.0;;;2.1;;
6561;SDS011;3314;50.890;4.722;2023-04-25T09:15:48;18.1;;;3.0;;
6561;SDS011;3314;50.890;4.722;2023-04-25T09:17:49;15.4;;;2.5;;
6561;SDS011;3314;50.890;4.722;2023-04-25T09:19:54;12.3;;;2.2;;
6561;SDS011;3314;50.890;4.722;2023-04-25T09:21:53;14.7;;;2.6;;
6561;SDS011;3314;50.890;4.722;2023-04-25T09:23:53;14.0;;;1.9;;
6561;SDS011;3314;50.890;4.722;2023-04-25T09:25:53;12.0;;;2.1;;
6561;SDS011;3314;50.890;4.722;2023-04-25T09:27:53;15.6;;;2.3;;
6561;SDS011;3314;50.890;4.722;2023-04-25T09:29:56;10.5;;;2.0;;
6561;SDS011;3314;50.890;4.722;2023-04-25T09:31:45;12.8;;;2.4;;
6561;SDS011;3314;50.890;4.722;2023-04-25T09:33:44;12.8;;;2.0;;
6561;SDS011;3314;50.890;4.722;2023-04-25T09:35:44;14.9;;;2.1;;
6561;SDS011;3314;50.890;4.722;2023-04-25T09:37:44;12.3;;;2.1;;
6561;SDS011;3314;50.890;4.722;2023-04-25T09:39:45;11.7;;;2.2;;
6561;SDS011;3314;50.890;4.722;2023-04-25T09:41:46;9.7;;;2.0;;
6561;SDS011;3314;50.890;4.722;2023-04-25T09:43:45;12.6;;;2.1;;
6561;SDS011;3314;50.890;4.722;2023-04-25T09:45:46;11.3;;;1.6;;
6561;SDS011;3314;50.890;4.722;2023-04-25T09:47:46;14.6;;;1.8;;
6561;SDS011;3314;50.890;4.722;2023-04-25T09:49:46;15.5;;;1.9;;
6561;SDS011;3314;50.890;4.722;2023-04-25T09:51:53;10.3;;;2.4;;
6561;SDS011;3314;50.890;4.722;2023-04-25T09:53:42;8.2;;;1.4;;
6561;SDS011;3314;50.890;4.722;2023-04-25T09:55:43;12.7;;;2.2;;
6561;SDS011;3314;50.890;4.722;2023-04-25T09:57:44;12.2;;;2.1;;
6561;SDS011;3314;50.890;4.722;2023-04-25T09:59:49;12.9;;;2.0;;
6561;SDS011;3314;50.890;4.722;2023-04-25T10:01:39;11.0;;;2.5;;
6561;SDS011;3314;50.890;4.722;2023-04-25T10:03:40;10.6;;;1.6;;
6561;SDS011;3314;50.890;4.722;2023-04-25T10:05:40;8.5;;;2.1;;
6561;SDS011;3314;50.890;4.722;2023-04-25T10:07:41;6.8;;;1.2;;
6561;SDS011;3314;50.890;4.722;2023-04-25T10:09:41;12.5;;;1.8;;
6561;SDS011;3314;50.890;4.722;2023-04-25T10:11:41;9.7;;;1.4;;
6561;SDS011;3314;50.890;4.722;2023-04-25T10:13:41;9.6;;;1.3;;
6561;SDS011;3314;50.890;4.722;2023-04-25T10:15:41;12.0;;;3.0;;
6561;SDS011;3314;50.890;4.722;2023-04-25T10:17:41;9.2;;;1.5;;
6561;SDS011;3314;50.890;4.722;2023-04-25T10:19:41;12.2;;;2.7;;
6561;SDS011;3314;50.890;4.722;2023-04-25T10:21:44;10.6;;;1.5;;
6561;SDS011;3314;50.890;4.722;2023-04-25T10:23:44;7.6;;;1.1;;
6561;SDS011;3314;50.890;4.722;2023-04-25T10:25:44;9.1;;;1.3;;
6561;SDS011;3314;50.890;4.722;2023-04-25T10:27:43;9.1;;;1.3;;
6561;SDS011;3314;50.890;4.722;2023-04-25T10:29:44;9.9;;;1.9;;
6561;SDS011;3314;50.890;4.722;2023-04-25T10:31:45;7.3;;;1.2;;
6561;SDS011;3314;50.890;4.722;2023-04-25T10:33:34;8.7;;;1.1;;
6561;SDS011;3314;50.890;4.722;2023-04-25T10:35:35;9.5;;;1.0;;
6561;SDS011;3314;50.890;4.722;2023-04-25T10:37:35;9.5;;;0.9;;
6561;SDS011;3314;50.890;4.722;2023-04-25T10:39:35;6.7;;;1.2;;
6561;SDS011;3314;50.890;4.722;2023-04-25T10:42:06;9.5;;;1.1;;
6561;SDS011;3314;50.890;4.722;2023-04-25T10:43:42;7.8;;;0.9;;
6561;SDS011;3314;50.890;4.722;2023-04-25T10:45:32;10.2;;;1.4;;
6561;SDS011;3314;50.890;4.722;2023-04-25T10:47:43;7.8;;;1.3;;
6561;SDS011;3314;50.890;4.722;2023-04-25T10:49:32;8.0;;;1.1;;
6561;SDS011;3314;50.890;4.722;2023-04-25T10:51:33;10.4;;;1.4;;
6561;SDS011;3314;50.890;4.722;2023-04-25T10:53:33;7.7;;;0.9;;
6561;SDS011;3314;50.890;4.722;2023-04-25T10:55:49;7.2;;;0.8;;
6561;SDS011;3314;50.890;4.722;2023-04-25T10:57:37;7.1;;;0.9;;
6561;SDS011;3314;50.890;4.722;2023-04-25T10:59:37;7.3;;;1.4;;
6561;SDS011;3314;50.890;4.722;2023-04-25T11:01:39;11.0;;;1.7;;
6561;SDS011;3314;50.890;4.722;2023-04-25T11:03:41;7.5;;;1.1;;
6561;SDS011;3314;50.890;4.722;2023-04-25T11:05:31;11.7;;;1.8;;
6561;SDS011;3314;50.890;4.722;2023-04-25T11:07:34;8.5;;;1.0;;
6561;SDS011;3314;50.890;4.722;2023-04-25T11:09:38;10.8;;;1.6;;
6561;SDS011;3314;50.890;4.722;2023-04-25T11:11:38;8.7;;;1.1;;
6561;SDS011;3314;50.890;4.722;2023-04-25T11:13:38;8.3;;;1.3;;
6561;SDS011;3314;50.890;4.722;2023-04-25T11:15:37;13.1;;;1.8;;
6561;SDS011;3314;50.890;4.722;2023-04-25T11:17:38;7.0;;;1.2;;
6561;SDS011;3314;50.890;4.722;2023-04-25T11:19:28;12.2;;;1.5;;
6561;SDS011;3314;50.890;4.722;2023-04-25T11:21:29;11.3;;;1.4;;
6561;SDS011;3314;50.890;4.722;2023-04-25T11:23:28;9.1;;;1.8;;
6561;SDS011;3314;50.890;4.722;2023-04-25T11:25:29;8.2;;;1.5;;
6561;SDS011;3314;50.890;4.722;2023-04-25T11:27:28;9.4;;;1.4;;
6561;SDS011;3314;50.890;4.722;2023-04-25T11:29:28;9.1;;;1.1;;
6561;SDS011;3314;50.890;4.722;2023-04-25T11:31:28;11.0;;;1.2;;
6561;SDS011;3314;50.890;4.722;2023-04-25T11:33:28;8.3;;;1.2;;
6561;SDS011;3314;50.890;4.722;2023-04-25T11:35:28;7.7;;;1.2;;
6561;SDS011;3314;50.890;4.722;2023-04-25T11:37:28;13.6;;;1.6;;
6561;SDS011;3314;50.890;4.722;2023-04-25T11:39:28;9.2;;;1.5;;
6561;SDS011;3314;50.890;4.722;2023-04-25T11:41:28;13.3;;;1.6;;
6561;SDS011;3314;50.890;4.722;2023-04-25T11:43:27;12.0;;;1.1;;
6561;SDS011;3314;50.890;4.722;2023-04-25T11:45:27;7.7;;;1.2;;
6561;SDS011;3314;50.890;4.722;2023-04-25T11:47:28;8.5;;;1.3;;
6561;SDS011;3314;50.890;4.722;2023-04-25T11:49:30;9.5;;;1.3;;
6561;SDS011;3314;50.890;4.722;2023-04-25T11:51:30;10.4;;;1.2;;
6561;SDS011;3314;50.890;4.722;2023-04-25T11:53:25;8.6;;;1.6;;
6561;SDS011;3314;50.890;4.722;2023-04-25T11:55:25;12.7;;;1.2;;
6561;SDS011;3314;50.890;4.722;2023-04-25T11:57:25;8.6;;;1.3;;
6561;SDS011;3314;50.890;4.722;2023-04-25T11:59:25;8.2;;;1.3;;
6561;SDS011;3314;50.890;4.722;2023-04-25T12:01:26;10.8;;;1.7;;
6561;SDS011;3314;50.890;4.722;2023-04-25T12:03:31;12.3;;;2.1;;
6561;SDS011;3314;50.890;4.722;2023-04-25T12:05:31;9.7;;;1.4;;
6561;SDS011;3314;50.890;4.722;2023-04-25T12:07:24;9.1;;;1.4;;
6561;SDS011;3314;50.890;4.722;2023-04-25T12:09:28;15.5;;;1.7;;
6561;SDS011;3314;50.890;4.722;2023-04-25T12:11:29;11.1;;;1.5;;
6561;SDS011;3314;50.890;4.722;2023-04-25T12:13:31;9.6;;;1.0;;
6561;SDS011;3314;50.890;4.722;2023-04-25T12:15:23;7.3;;;1.0;;
6561;SDS011;3314;50.890;4.722;2023-04-25T12:17:23;14.6;;;1.7;;
6561;SDS011;3314;50.890;4.722;2023-04-25T12:19:23;11.7;;;1.8;;
6561;SDS011;3314;50.890;4.722;2023-04-25T12:21:23;12.0;;;1.5;;
6561;SDS011;3314;50.890;4.722;2023-04-25T12:23:26;8.3;;;1.3;;
6561;SDS011;3314;50.890;4.722;2023-04-25T12:25:41;12.0;;;1.4;;
6561;SDS011;3314;50.890;4.722;2023-04-25T12:27:19;7.4;;;1.2;;
6561;SDS011;3314;50.890;4.722;2023-04-25T12:29:20;8.3;;;1.1;;
6561;SDS011;3314;50.890;4.722;2023-04-25T12:31:20;8.0;;;1.4;;
6561;SDS011;3314;50.890;4.722;2023-04-25T12:33:21;9.8;;;1.2;;
6561;SDS011;3314;50.890;4.722;2023-04-25T12:35:21;9.2;;;1.5;;
6561;SDS011;3314;50.890;4.722;2023-04-25T12:37:21;7.2;;;1.2;;
6561;SDS011;3314;50.890;4.722;2023-04-25T12:39:22;9.3;;;1.5;;
6561;SDS011;3314;50.890;4.722;2023-04-25T12:41:22;7.8;;;1.5;;
6561;SDS011;3314;50.890;4.722;2023-04-25T12:43:22;7.8;;;1.4;;
6561;SDS011;3314;50.890;4.722;2023-04-25T12:45:22;6.8;;;1.1;;
6561;SDS011;3314;50.890;4.722;2023-04-25T12:47:22;8.4;;;1.4;;
6561;SDS011;3314;50.890;4.722;2023-04-25T12:49:21;6.3;;;1.0;;
6561;SDS011;3314;50.890;4.722;2023-04-25T12:51:21;10.2;;;1.4;;
6561;SDS011;3314;50.890;4.722;2023-04-25T12:53:22;11.8;;;1.4;;
6561;SDS011;3314;50.890;4.722;2023-04-25T12:55:22;8.3;;;1.1;;
6561;SDS011;3314;50.890;4.722;2023-04-25T12:57:21;7.9;;;1.3;;
6561;SDS011;3314;50.890;4.722;2023-04-25T12:59:21;8.3;;;1.3;;
6561;SDS011;3314;50.890;4.722;2023-04-25T13:01:21;10.3;;;1.4;;
6561;SDS011;3314;50.890;4.722;2023-04-25T13:03:22;7.8;;;1.2;;
6561;SDS011;3314;50.890;4.722;2023-04-25T13:05:21;7.6;;;1.1;;
6561;SDS011;3314;50.890;4.722;2023-04-25T13:07:21;6.9;;;1.0;;
6561;SDS011;3314;50.890;4.722;2023-04-25T13:09:21;6.9;;;1.2;;
6561;SDS011;3314;50.890;4.722;2023-04-25T13:11:21;8.9;;;1.2;;
6561;SDS011;3314;50.890;4.722;2023-04-25T13:13:20;7.1;;;1.2;;
6561;SDS011;3314;50.890;4.722;2023-04-25T13:15:20;12.7;;;1.2;;